Aviation Digital Data Service (ADDS)

Output produced by TAFs form (1630 UTC 18 July 2018)
found at http://www.aviationweather.gov/adds/tafs/
 
METAR text: KFAT 181553Z 12003KT 10SM FEW200 BKN250 29/13 A2994 RMK AO2 SLP134 MTNS OBSC FU HZ DSNT N-E-S T02890133
Conditions at: KFAT (FRESNO , CA, US) observed 1553 UTC 18 July 2018
Temperature: 28.9°C (84°F)
Dewpoint: 13.3°C (56°F) [RH = 38%]
Pressure (altimeter): 29.94 inches Hg (1014.0 mb)
[Sea-level pressure: 1013.4 mb]
Winds: from the ESE (120 degrees) at 3 MPH (3 knots; 1.6 m/s)
Visibility: 10 or more miles (16+ km)
Ceiling: 25000 feet AGL
Clouds: few clouds at 20000 feet AGL
broken clouds at 25000 feet AGL
Weather: no significant weather observed at this time

Forecast for: KFAT (FRESNO , CA, US)
Text: KFAT 181120Z 1812/1912 31008KT P6SM SKC
Forecast period: 1200 UTC 18 July 2018 to 1200 UTC 19 July 2018
Forecast type: FROM: standard forecast or significant change
Winds: from the NW (310 degrees) at 9 MPH (8 knots; 4.2 m/s)
Visibility: 6 or more miles (10+ km)
Clouds: clear skies
Weather: no significant weather forecast for this period